Galena, Nevada
Current Conditions -  °F | °C
As of 11:55 AM on Sunday 23 Nov 2014 (Local Time) from KRNO Reporting Station
Overcast Overcast  
Wind Chill: 42°   Ceiling: 22000
Heat Index: 42°   Visibility: 10mi
Dew Point: 26°   Wind: 0mph
Humidity: 53%   Direction: NA
Pressure: 30.36"   Gusts: NA
Location:  39.3905°N, 119.807°W
Report Text: KRNO 231955Z 00000KT 10SM FEW130 SCT160 OVC220 06/M03 A3036 RMK AO2 SLP278 T00561033
Loading
Personal Weather Stations






























Interactive Weather Map New forecast layout! Learn more

10-Day Weather Forecast

Advertisements
Track Severe Weather on mobile